Weather observations for the past three days for
Tillamook, Tillamook Airport
Imperial (Metric)
Date Time (pdt) Wind (mph) Vis. (mi.) Weather Sky Cond. Temperature (ºF) Relative Humidity Wind Chill (°F) Heat Index (°F) Pressure Precipitation (in)
Air Dwpt 6 hour altimeter (in) sea level (mb) 1 hr 3 hr 6 hr
Max. Min.
06 18:55 NW 7 10.00 Overcast BKN020 OVC024 55.4 53.6 94% 30.19 0.0
06 18:35 NW 6 10.00 Overcast SCT017 OVC024 55.4 53.6 94% 30.2 0.0
06 18:15 NW 8 10.00 Overcast BKN016 OVC024 55.4 53.6 94% 30.2 0.0
06 17:55 NW 7 10.00 Unknown Precip BKN015 OVC021 55.4 53.6 94% 30.2 0.0
06 17:35 NW 8 10.00 Overcast FEW015 OVC021 55.4 53.6 94% 30.2 0.0
06 17:15 NW 9 10.00 Overcast BKN014 OVC022 55.4 53.6 94% 30.2 0.0
06 16:55 W 6 10.00 Overcast BKN014 OVC018 57.2 53.6 88% 30.2 0.0
06 16:35 W 8 10.00 Overcast BKN013 OVC023 57.2 53.6 88% 30.2 0.0
06 16:15 W 8 10.00 Overcast OVC023 57.2 53.6 88% 30.21 0.0
06 15:55 W 7 10.00 Overcast OVC023 57.2 53.6 88% 30.21 0.0
06 15:35 W 8 10.00 Overcast FEW015 OVC024 57.2 53.6 88% 30.22 0.0
06 15:15 W 8 10.00 Overcast FEW015 OVC023 57.2 53.6 88% 30.22 0.0
06 14:55 W 8 10.00 Overcast OVC023 57.2 53.6 88% 30.21 0.0
06 14:35 W 7 10.00 Overcast OVC020 57.2 51.8 82% 30.21 0.0
06 14:15 W 7 10.00 Overcast OVC019 57.2 51.8 82% 30.21 0.0
06 13:55 W 7 10.00 Overcast OVC019 57.2 51.8 82% 30.21 0.0
06 13:35 W 7 10.00 Overcast OVC019 57.2 51.8 82% 30.21 0.0
06 13:15 W 7 10.00 Overcast OVC020 57.2 51.8 82% 30.2 0.0
06 12:55 W 6 10.00 Overcast OVC020 57.2 51.8 82% 30.21 0.0
06 12:35 W 6 10.00 Overcast OVC019 57.2 51.8 82% 30.2 0.0
06 12:15 Vrbl 3 10.00 Overcast OVC018 57.2 51.8 82% 30.2 0.0
06 11:55 W 6 10.00 Overcast OVC017 57.2 51.8 82% 30.2 0.0
06 11:35 W 7 10.00 Overcast OVC017 57.2 51.8 82% 30.2 0.0
06 11:15 W 7 10.00 Overcast OVC017 57.2 51.8 82% 30.2 0.0
06 10:55 W 8 10.00 Overcast OVC017 57.2 51.8 82% 30.19 0.0
06 10:35 Calm 10.00 Overcast OVC017 57.2 51.8 82% 30.18 0.0
06 10:15 Calm 10.00 Overcast OVC016 57.2 51.8 82% 30.18 0.0
06 09:55 W 5 10.00 Overcast OVC016 55.4 51.8 88% 30.18 0.0
06 09:35 Calm 10.00 Overcast OVC016 55.4 51.8 88% 30.17 0.0
06 09:15 W 5 10.00 Overcast OVC016 55.4 51.8 88% 30.17 0.0
06 08:55 Calm 10.00 Overcast OVC016 55.4 51.8 88% 30.17 0.0
06 08:35 SW 5 10.00 Overcast OVC016 55.4 51.8 88% 30.17 0.0
06 08:15 SW 6 10.00 Overcast OVC016 55.4 51.8 88% 30.16 0.0
06 07:55 SE 6 10.00 Overcast OVC018 53.6 51.8 94% 30.15 0.0
06 07:35 SE 5 10.00 Overcast OVC017 53.6 53.6 100% 30.15 0.0
06 07:15 Calm 10.00 Overcast BKN015 OVC019 53.6 51.8 94% 30.16 0.0
06 06:55 Calm 10.00 Overcast OVC017 53.6 51.8 94% 30.16 0.0
06 06:35 W 3 9.00 Overcast OVC014 53.6 51.8 94% 30.16 0.0
06 06:15 Calm 10.00 Overcast OVC015 53.6 51.8 94% 30.14 0.0
06 05:55 Calm 10.00 Overcast OVC016 53.6 53.6 100% 30.15 0.0
06 05:35 Calm 10.00 Overcast OVC016 53.6 53.6 100% 30.14 0.0
06 05:15 Calm 10.00 Overcast OVC012 53.6 53.6 100% 30.13 0.0
06 04:55 Calm 10.00 Overcast OVC011 53.6 53.6 100% 30.13 0.0
06 04:35 Calm 10.00 Overcast OVC013 53.6 53.6 100% 30.12 0.0
06 04:15 Calm 9.00 Overcast OVC014 53.6 51.8 94% 30.13 0.0
06 03:55 Calm 7.00 Overcast OVC014 53.6 53.6 100% 30.12 0.0
06 03:35 W 3 9.00 Overcast OVC012 53.6 53.6 100% 30.12 0.0
06 03:15 W 3 9.00 Overcast OVC012 53.6 51.8 94% 30.12 0.0
06 02:55 Calm 9.00 Overcast OVC012 55.4 51.8 88% 30.11 0.0
06 02:35 Vrbl 3 10.00 Overcast OVC013 55.4 53.6 94% 30.11 0.0
06 02:15 Calm 10.00 Overcast OVC013 55.4 53.6 94% 30.1 0.0
06 01:55 Calm 10.00 Overcast OVC014 55.4 53.6 94% 30.1 0.0
06 01:35 W 3 10.00 Overcast OVC014 55.4 53.6 94% 30.1 0.0
06 01:15 Calm 10.00 Overcast OVC013 55.4 51.8 88% 30.09 0.0
06 00:55 Calm 10.00 Overcast OVC013 55.4 51.8 88% 30.09 0.0
06 00:35 Calm 10.00 Overcast OVC014 55.4 53.6 94% 30.08 0.0
06 00:15 Calm 10.00 Overcast OVC014 55.4 51.8 88% 30.08 0.0
05 23:55 Calm 10.00 Overcast OVC015 55.4 53.6 94% 30.07 0.0
05 23:35 Calm 10.00 Overcast OVC015 55.4 53.6 94% 30.07 0.0
05 23:15 Calm 10.00 Overcast OVC015 55.4 51.8 88% 30.07 0.0
05 22:55 Calm 10.00 Overcast OVC015 55.4 51.8 88% 30.07 0.0
05 22:15 Calm 10.00 Overcast OVC016 55.4 51.8 88% 30.07 0.0
05 21:55 Calm 10.00 Overcast OVC016 57.2 51.8 82% 30.07 0.0
05 21:35 Calm 10.00 Overcast OVC016 57.2 51.8 82% 30.06 0.0
05 21:15 Calm 10.00 Overcast OVC016 57.2 51.8 82% 30.06 0.0
05 20:55 Calm 10.00 Overcast OVC017 57.2 51.8 82% 30.06 0.0
05 20:35 NW 5 10.00 Overcast OVC017 57.2 51.8 82% 30.05 0.0
05 20:15 W 3 10.00 Overcast OVC017 57.2 51.8 82% 30.04 0.0
05 19:55 W 5 10.00 Overcast OVC018 57.2 51.8 82% 30.04 0.0
05 19:35 W 6 10.00 Overcast OVC018 57.2 51.8 82% 30.03 0.0
05 19:15 W 3 10.00 Overcast OVC018 57.2 51.8 82% 30.03 0.0
05 18:55 NW 6 10.00 Overcast OVC018 57.2 51.8 82% 30.03 0.0
05 18:35 NW 5 10.00 Overcast OVC019 59 51.8 77% 30.03 0.0
05 18:15 NW 6 10.00 Overcast OVC020 59 51.8 77% 30.03 0.0
05 17:55 NW 9 10.00 Overcast OVC021 59 51.8 77% 30.03 0.0
05 17:35 NW 8 10.00 Overcast OVC020 59 51.8 77% 30.03 0.0
05 17:15 NW 8 10.00 Overcast OVC020 59 53.6 82% 30.03 0.0
05 16:55 NW 9 10.00 Overcast OVC021 60.8 53.6 77% 30.03 0.0
05 16:35 W 7 10.00 Overcast OVC022 60.8 53.6 77% 30.03 0.0
05 16:15 W 9 10.00 Overcast OVC022 60.8 51.8 72% 30.03 0.0
05 15:55 SW 7 10.00 Overcast OVC023 60.8 51.8 72% 30.04 0.0
05 15:35 W 6 10.00 Overcast OVC022 60.8 51.8 72% 30.04 0.0
05 15:15 W 6 10.00 Overcast OVC022 60.8 53.6 77% 30.04 0.0
05 14:55 W 5 10.00 Overcast OVC023 60.8 51.8 72% 30.04 0.0
05 14:35 W 8 10.00 Overcast OVC022 60.8 53.6 77% 30.04 0.0
05 14:15 NW 5 10.00 Overcast OVC022 59 51.8 77% 30.05 0.0
05 13:55 NW 3 10.00 Overcast OVC021 59 51.8 77% 30.05 0.0
05 13:35 N 5 10.00 Overcast OVC020 59 51.8 77% 30.05 0.0
05 13:15 Calm 10.00 Overcast OVC018 59 51.8 77% 30.05 0.0
05 12:35 NW 5 10.00 Overcast OVC018 57.2 51.8 82% 30.05 0.0
05 12:15 Calm 10.00 Overcast OVC017 59 51.8 77% 30.05 0.0
05 11:55 Calm 10.00 Overcast OVC017 57.2 51.8 82% 30.05 0.0
05 11:35 W 5 10.00 Overcast OVC017 57.2 51.8 82% 30.05 0.0
05 11:15 W 5 2.50 Overcast with Haze OVC017 57.2 51.8 82% 30.05 0.0
05 10:55 Calm 4.00 Overcast with Haze OVC017 57.2 51.8 82% 30.04 0.0
05 10:35 Calm 2.00 Fog/Mist OVC016 57.2 51.8 82% 30.04 0.0
05 10:15 Calm 0.75 Light Rain Fog/Mist OVC016 55.4 51.8 88% 30.03 0.0
05 09:55 Calm 9.00 Overcast OVC018 57.2 53.6 88% 30.03 0.0
05 09:35 Calm 8.00 Overcast OVC018 55.4 53.6 94% 30.03 0.0
05 09:15 Calm 10.00 Overcast OVC018 55.4 53.6 94% 30.02 0.0
05 08:55 Calm 10.00 Overcast OVC018 55.4 53.6 94% 30.02 0.0
05 08:35 Calm 10.00 Overcast OVC019 55.4 53.6 94% 30.02 0.0
05 08:15 Calm 10.00 Overcast OVC020 55.4 53.6 94% 30.02 0.0
05 07:55 NE 3 10.00 Overcast OVC020 53.6 53.6 100% 30.01 0.0
05 07:35 Calm 10.00 Overcast OVC018 53.6 53.6 100% 30.01 0.0
05 07:15 Calm 10.00 Overcast OVC018 53.6 53.6 100% 30.01 0.0
05 06:55 NE 5 10.00 Overcast OVC019 53.6 53.6 100% 30 0.0
05 06:35 Calm 10.00 Overcast OVC018 53.6 53.6 100% 30 0.0
05 06:15 Calm 10.00 Overcast OVC018 53.6 53.6 100% 30 0.0
05 05:55 Calm 8.00 Overcast OVC017 53.6 53.6 100% 29.99 0.0
05 05:35 Calm 10.00 Overcast OVC017 53.6 53.6 100% 29.99 0.0
05 05:15 Calm 8.00 Overcast OVC016 53.6 53.6 100% 29.99 0.0
05 04:55 Calm 5.00 Unknown Precip Fog/Mist OVC015 53.6 53.6 100% 29.99 0.0
05 04:35 Calm 7.00 Unknown Precip OVC014 53.6 53.6 100% 29.99 0.0
05 04:15 Calm 10.00 Overcast FEW005 OVC015 53.6 53.6 100% 29.98 0.0
05 03:55 Calm 9.00 Overcast OVC013 53.6 53.6 100% 29.98 0.0
05 03:35 Calm 6.00 Unknown Precip Fog/Mist OVC012 53.6 53.6 100% 29.98 0.0
05 03:15 Calm 9.00 Overcast OVC011 53.6 53.6 100% 29.98 0.0
05 02:55 Calm 8.00 Overcast OVC011 53.6 53.6 100% 29.98 0.0
05 02:35 Calm 10.00 Overcast OVC011 53.6 53.6 100% 29.98 0.0
05 02:15 Vrbl 3 9.00 Unknown Precip OVC012 53.6 53.6 100% 29.98 0.0
05 01:55 Calm 9.00 Unknown Precip BKN010 OVC013 55.4 53.6 94% 29.98 0.0
05 01:35 Calm 9.00 Overcast SCT008 OVC013 53.6 53.6 100% 29.98 0.0
05 01:15 Calm 10.00 Overcast SCT010 OVC014 55.4 53.6 94% 29.97 0.0
05 00:55 SW 3 10.00 Overcast OVC013 53.6 53.6 100% 29.97 0.0
05 00:35 SE 3 10.00 Overcast OVC013 55.4 53.6 94% 29.97 0.0
05 00:15 Calm 10.00 Overcast OVC014 55.4 53.6 94% 29.97 0.0
04 23:55 Calm 10.00 Overcast OVC013 53.6 53.6 100% 29.97 0.0
04 23:35 Calm 9.00 Overcast OVC013 53.6 53.6 100% 29.97 0.0
04 23:15 S 5 7.00 Unknown Precip OVC012 53.6 53.6 100% 29.97 0.0
04 22:55 SW 3 4.00 Unknown Precip Fog/Mist OVC012 55.4 53.6 94% 29.97 0.0
04 22:35 S 7 10.00 Overcast OVC014 55.4 51.8 88% 29.97 0.0
04 22:15 S 5 10.00 Overcast OVC016 55.4 51.8 88% 29.97 0.0
04 21:55 SW 5 10.00 Overcast OVC018 55.4 51.8 88% 29.97 0.0
04 21:35 SW 8 10.00 Overcast OVC018 55.4 51.8 88% 29.96 0.0
04 21:15 Vrbl 6 10.00 Overcast OVC017 55.4 53.6 94% 29.96 0.0
04 20:55 SW 8 10.00 Overcast OVC017 55.4 53.6 94% 29.95 0.0
04 20:35 SW 7 10.00 Overcast OVC017 55.4 53.6 94% 29.95 0.0
04 20:15 SW 7 10.00 Overcast OVC017 55.4 53.6 94% 29.95 0.0
04 19:55 W 9 10.00 Overcast BKN015 OVC020 55.4 53.6 94% 29.94 0.0
04 19:35 W 9 10.00 Overcast BKN014 OVC022 57.2 53.6 88% 29.94 0.0
04 19:15 SW 14 10.00 Overcast OVC022 57.2 53.6 88% 29.94 0.0
04 18:55 SW 10 10.00 Overcast OVC022 57.2 51.8 82% 29.94 0.0
04 18:35 SW 13 G 18 10.00 Overcast OVC023 57.2 51.8 82% 29.95 0.0
04 18:15 SW 13 10.00 Overcast OVC024 59 53.6 82% 29.95 0.0
04 17:55 SW 12 10.00 Overcast OVC023 59 53.6 82% 29.95 0.0
04 17:35 SW 10 G 18 10.00 Overcast OVC024 59 53.6 82% 29.95 0.0
04 17:15 SW 9 10.00 Overcast OVC025 59 53.6 82% 29.95 0.0
04 16:55 SW 10 G 16 10.00 Overcast OVC023 59 53.6 82% 29.95 0.0
04 16:35 SW 13 10.00 Overcast OVC023 60.8 53.6 77% 29.95 0.0
04 16:15 SW 13 10.00 Overcast OVC023 60.8 53.6 77% 29.95 0.0
04 15:55 SW 14 10.00 Overcast OVC023 60.8 53.6 77% 29.95 0.0
04 15:35 SW 12 10.00 Overcast OVC023 62.6 53.6 73% 29.95 0.0
04 15:15 SW 10 10.00 Overcast OVC023 62.6 53.6 73% 29.95 0.0
04 14:55 SW 10 10.00 Overcast OVC021 62.6 53.6 73% 29.95 0.0
04 14:35 S 9 10.00 Overcast OVC020 62.6 53.6 73% 29.96 0.0
04 14:15 Vrbl 6 10.00 Overcast OVC019 60.8 53.6 77% 29.96 0.0
04 13:55 Vrbl 6 10.00 Overcast OVC019 60.8 53.6 77% 29.97 0.0
04 13:35 Vrbl 7 10.00 Overcast OVC017 60.8 53.6 77% 29.97 0.0
04 13:15 SW 7 10.00 Overcast OVC017 60.8 55.4 83% 29.97 0.0
04 12:55 SW 9 10.00 Overcast OVC017 59 53.6 82% 29.97 0.0
04 12:35 SW 7 9.00 Overcast OVC016 59 55.4 88% 29.97 0.0
04 12:15 SW 8 7.00 Light Rain OVC015 59 55.4 88% 29.97 0.0
04 11:55 SW 8 10.00 Overcast OVC015 59 55.4 88% 29.97 0.0
04 11:35 W 6 7.00 Overcast OVC014 59 55.4 88% 29.97 0.0
04 11:15 Vrbl 7 9.00 Overcast OVC014 59 53.6 82% 29.96 0.0
04 10:55 Vrbl 3 8.00 Overcast OVC014 57.2 53.6 88% 29.96 0.0
04 10:35 SW 5 10.00 Overcast OVC015 57.2 53.6 88% 29.96 0.0
04 10:15 SW 6 10.00 Overcast OVC014 57.2 53.6 88% 29.96 0.0
04 09:55 SW 5 10.00 Overcast OVC013 57.2 53.6 88% 29.96 0.0
04 09:35 Calm 9.00 Overcast OVC014 57.2 53.6 88% 29.95 0.0
04 09:15 S 5 10.00 Overcast OVC014 57.2 53.6 88% 29.95 0.0
04 08:55 S 5 10.00 Overcast OVC013 55.4 53.6 94% 29.95 0.0
04 08:35 Calm 10.00 Overcast OVC012 55.4 53.6 94% 29.95 0.0
04 08:15 S 5 10.00 Overcast OVC012 55.4 53.6 94% 29.95 0.0
04 07:55 Vrbl 3 10.00 Overcast BKN013 OVC018 55.4 53.6 94% 29.94 0.0
04 07:35 SW 5 10.00 Overcast BKN013 OVC018 55.4 51.8 88% 29.94 0.0
04 07:15 S 6 8.00 Overcast OVC011 55.4 53.6 94% 29.94 0.0
04 06:55 SW 7 7.00 Overcast OVC010 55.4 53.6 94% 29.93 0.0
04 06:35 Vrbl 7 8.00 Overcast OVC010 53.6 53.6 100% 29.93 0.0
04 06:15 SW 9 8.00 Overcast OVC010 53.6 53.6 100% 29.92 0.0
04 05:55 SW 9 10.00 Overcast OVC011 55.4 53.6 94% 29.92 0.0
04 05:35 SW 8 7.00 Overcast OVC010 55.4 53.6 94% 29.91 0.0
04 05:15 SW 7 10.00 Overcast OVC010 55.4 53.6 94% 29.91 0.0
04 04:55 SW 9 G 15 10.00 Overcast OVC009 55.4 53.6 94% 29.91 0.0
04 04:35 SW 8 6.00 Fog/Mist OVC009 53.6 53.6 100% 29.91 0.0
04 04:15 Vrbl 6 G 12 3.00 Fog/Mist OVC009 53.6 53.6 100% 29.92 0.0
04 03:55 SW 6 G 13 5.00 Fog/Mist OVC008 53.6 53.6 100% 29.91 0.0
04 03:35 SW 8 8.00 Overcast OVC007 53.6 53.6 100% 29.91 0.0
04 03:15 SW 8 9.00 Overcast OVC006 53.6 53.6 100% 29.91 0.0
04 02:55 SW 8 9.00 Overcast OVC007 53.6 53.6 100% 29.91 0.0
04 02:15 S 12 10.00 Overcast OVC010 53.6 53.6 100% 29.9 0.0
04 01:55 S 10 G 18 10.00 Overcast OVC009 55.4 53.6 94% 29.9 0.0
04 01:35 SW 6 G 13 10.00 Overcast OVC008 55.4 53.6 94% 29.9 0.0
04 01:15 SW 9 10.00 Overcast OVC008 55.4 53.6 94% 29.9 0.0
04 00:55 S 10 10.00 Overcast OVC008 55.4 53.6 94% 29.9 0.0
04 00:35 SW 8 10.00 Overcast OVC009 55.4 53.6 94% 29.9 0.0
04 00:15 SW 6 10.00 Overcast OVC008 55.4 53.6 94% 29.9 0.0
03 23:55 S 7 10.00 Overcast OVC007 55.4 53.6 94% 29.89 0.0
03 23:35 S 8 10.00 Overcast OVC007 53.6 53.6 100% 29.89 0.0
03 23:15 S 8 10.00 Overcast OVC007 55.4 53.6 94% 29.89 0.0
03 22:55 S 8 10.00 Overcast OVC008 55.4 53.6 94% 29.89 0.0
03 22:35 S 7 10.00 Mostly Cloudy BKN009 53.6 53.6 100% 29.88 0.0
03 22:15 S 7 10.00 Fair CLR 53.6 53.6 100% 29.87 0.0
03 21:55 S 5 G 12 10.00 Fair CLR 55.4 53.6 94% 29.86 0.0
03 21:35 S 8 8.00 Fair CLR 55.4 53.6 94% 29.85 0.0
03 21:15 S 8 9.00 Fair CLR 57.2 53.6 88% 29.84 0.0
03 20:55 SW 8 10.00 Fair CLR 59 55.4 88% 29.83 0.0
03 20:35 S 6 9.00 Fair CLR 60.8 55.4 83% 29.81 0.0
03 20:15 W 8 10.00 Fair CLR 64.4 53.6 68% 29.8 0.0
03 19:55 W 10 10.00 Fair CLR 64.4 53.6 68% 29.79 0.0
03 19:35 W 6 10.00 Fair CLR 66.2 55.4 68% 29.78 0.0
Date Time (pdt) Wind (mph) Vis. (mi.) Weather Sky Cond. Air Dwpt Max. Min. Relative Humidity Wind Chill (°F) Heat Index (°F) altimeter (in) sea level (mb) 1 hr 3 hr 6 hr
6 hour
Temperature (ºF) Pressure Precipitation (in)